Time;durP1;ratioP1;P1;durP2;ratioP2;P2;SDS_P1;SDS_P2;PMS_P1;PMS_P2;Temp;Humidity;BMP_temperature;BMP_pressure;BME280_temperature;BME280_humidity;BME280_pressure;Samples;Min_cycle;Max_cycle;Signal;HPM_P1;HPM_P2
2022/07/11 00:01:44;;;;;;;3.57;2.63;;;12.90;99.90;;;;;;5112284;28;20207;-68
2022/07/11 00:04:12;;;;;;;4.80;2.87;;;12.90;99.90;;;;;;5112272;28;20223;-68
2022/07/11 00:06:39;;;;;;;5.00;2.60;;;12.90;99.90;;;;;;5112306;28;20222;-68
2022/07/11 00:09:06;;;;;;;5.53;4.07;;;12.90;99.90;;;;;;5111689;28;20246;-67
2022/07/11 00:11:33;;;;;;;2.83;2.50;;;12.90;99.90;;;;;;5111400;28;20572;-67
2022/07/11 00:13:59;;;;;;;2.77;2.10;;;12.90;99.90;;;;;;5111438;28;20195;-67
2022/07/11 00:16:26;;;;;;;2.83;2.20;;;12.90;99.90;;;;;;5112271;28;20204;-68
2022/07/11 00:18:53;;;;;;;4.47;2.50;;;12.80;99.90;;;;;;5110372;28;20216;-68
2022/07/11 00:21:21;;;;;;;2.77;2.57;;;12.80;99.90;;;;;;5110202;28;20199;-67
2022/07/11 00:23:48;;;;;;;6.43;2.50;;;12.70;99.90;;;;;;5111954;28;20224;-68
2022/07/11 00:26:14;;;;;;;3.60;2.47;;;12.70;99.90;;;;;;5110145;28;20500;-68
2022/07/11 00:28:41;;;;;;;2.80;2.50;;;12.60;99.90;;;;;;5111513;28;20204;-68
2022/07/11 00:31:08;;;;;;;2.80;2.40;;;12.70;99.90;;;;;;5107829;28;20579;-69
2022/07/11 00:33:35;;;;;;;2.50;2.30;;;12.60;99.90;;;;;;5109603;28;20208;-67
2022/07/11 00:36:01;;;;;;;3.13;2.10;;;12.60;99.90;;;;;;5111550;28;20219;-68
2022/07/11 00:38:29;;;;;;;3.07;2.40;;;12.50;99.90;;;;;;5111697;28;20204;-68
2022/07/11 00:40:56;;;;;;;3.60;1.90;;;12.50;99.90;;;;;;5111129;28;20210;-68
2022/07/11 00:43:31;;;;;;;3.13;2.57;;;12.50;99.90;;;;;;5111317;28;20695;-68
2022/07/11 00:45:58;;;;;;;4.33;2.20;;;12.50;99.90;;;;;;5111390;28;20199;-68
2022/07/11 00:48:24;;;;;;;12.53;1.90;;;12.50;99.90;;;;;;5110238;28;20207;-69
2022/07/11 00:50:52;;;;;;;3.50;1.50;;;12.50;99.90;;;;;;5110971;28;20215;-68
2022/07/11 00:53:20;;;;;;;3.10;1.90;;;12.50;99.90;;;;;;5111843;28;20204;-70
2022/07/11 00:55:52;;;;;;;2.00;1.80;;;12.40;99.90;;;;;;5111474;28;20204;-68
2022/07/11 00:58:19;;;;;;;3.27;1.70;;;12.40;99.90;;;;;;5111020;28;20208;-69
2022/07/11 01:00:46;;;;;;;2.10;1.43;;;12.40;99.90;;;;;;5110094;28;20204;-70
2022/07/11 01:03:13;;;;;;;2.70;1.87;;;12.40;99.90;;;;;;5109408;28;20243;-68
2022/07/11 01:05:40;;;;;;;1.60;1.50;;;12.40;99.90;;;;;;5111341;28;20565;-68
2022/07/11 01:08:06;;;;;;;3.47;1.80;;;12.40;99.90;;;;;;5111344;28;20224;-69
2022/07/11 01:10:34;;;;;;;2.57;1.70;;;12.40;99.90;;;;;;5109797;28;20211;-68
2022/07/11 01:13:02;;;;;;;6.47;1.63;;;12.30;99.90;;;;;;5097030;28;20663;-68
2022/07/11 01:15:29;;;;;;;2.73;1.57;;;12.40;99.90;;;;;;5111091;28;20282;-68
2022/07/11 01:17:56;;;;;;;2.33;1.73;;;12.40;99.90;;;;;;5110597;28;20588;-69
2022/07/11 01:20:23;;;;;;;2.03;1.53;;;12.40;99.90;;;;;;5109712;28;20211;-69
2022/07/11 01:22:53;;;;;;;2.13;1.40;;;12.30;99.90;;;;;;5110788;28;20241;-68
2022/07/11 01:25:30;;;;;;;1.80;1.67;;;12.30;99.90;;;;;;5110974;28;20204;-68
2022/07/11 01:27:57;;;;;;;2.23;1.43;;;12.20;99.90;;;;;;5111634;28;20199;-68
2022/07/11 01:30:25;;;;;;;1.60;1.40;;;12.30;99.90;;;;;;5110558;28;20207;-68
2022/07/11 01:32:52;;;;;;;3.03;1.90;;;12.20;99.90;;;;;;5105702;28;20298;-68
2022/07/11 01:35:19;;;;;;;2.10;1.70;;;12.20;99.90;;;;;;5108023;28;20572;-68
2022/07/11 01:37:46;;;;;;;3.37;1.83;;;12.20;99.90;;;;;;5111190;28;20238;-69
2022/07/11 01:40:13;;;;;;;1.90;1.73;;;12.20;99.90;;;;;;5110668;28;20210;-67
2022/07/11 01:42:41;;;;;;;2.40;1.60;;;12.20;99.90;;;;;;5110621;28;20652;-67
2022/07/11 01:45:09;;;;;;;2.53;1.80;;;12.20;99.90;;;;;;5110935;28;20211;-68
2022/07/11 01:47:36;;;;;;;4.00;1.80;;;12.10;99.90;;;;;;5107466;28;20192;-67
2022/07/11 01:50:03;;;;;;;2.33;1.43;;;12.20;99.90;;;;;;5110736;28;20208;-68
2022/07/11 01:52:30;;;;;;;2.50;1.60;;;12.10;99.90;;;;;;5109054;28;20219;-68
2022/07/11 01:54:56;;;;;;;2.70;1.70;;;12.20;99.90;;;;;;5110910;28;20648;-69
2022/07/11 01:57:23;;;;;;;3.13;1.43;;;12.10;99.90;;;;;;5111049;28;20691;-68
2022/07/11 01:59:52;;;;;;;5.77;1.83;;;12.10;99.90;;;;;;5110901;28;20607;-69
2022/07/11 02:02:19;;;;;;;4.17;1.80;;;12.10;99.90;;;;;;5109222;28;20211;-67
2022/07/11 02:04:46;;;;;;;4.90;1.87;;;12.10;99.90;;;;;;5110793;28;20227;-68
2022/07/11 02:07:14;;;;;;;4.17;1.33;;;12.10;99.90;;;;;;5109417;28;20648;-68
2022/07/11 02:09:41;;;;;;;5.83;1.90;;;12.10;99.90;;;;;;5110423;28;20216;-68
2022/07/11 02:12:09;;;;;;;4.80;1.97;;;12.10;99.90;;;;;;5109798;28;20211;-68
2022/07/11 02:14:35;;;;;;;3.90;2.00;;;12.10;99.90;;;;;;5110603;28;20204;-67
2022/07/11 02:17:04;;;;;;;2.23;1.53;;;12.10;99.90;;;;;;5109521;28;20200;-68
2022/07/11 02:19:30;;;;;;;4.30;1.80;;;12.10;99.90;;;;;;5109272;28;20204;-68
2022/07/11 02:22:04;;;;;;;2.87;2.07;;;12.10;99.90;;;;;;5112442;28;20403;-68
2022/07/11 02:24:31;;;;;;;2.03;1.83;;;12.10;99.90;;;;;;5110300;28;20208;-68
2022/07/11 02:26:58;;;;;;;6.03;1.80;;;12.10;99.90;;;;;;5113931;28;20215;-69
2022/07/11 02:29:25;;;;;;;4.47;1.73;;;12.10;99.90;;;;;;5112976;28;20210;-68
2022/07/11 02:31:51;;;;;;;3.53;1.77;;;12.10;99.90;;;;;;5112622;28;20211;-68
2022/07/11 02:34:19;;;;;;;4.33;2.10;;;12.10;99.90;;;;;;5113296;28;20207;-68
2022/07/11 02:36:46;;;;;;;6.03;1.90;;;12.10;99.90;;;;;;5113866;28;20615;-68
2022/07/11 02:39:13;;;;;;;6.27;1.90;;;12.10;99.90;;;;;;5113054;28;20196;-69
2022/07/11 02:41:39;;;;;;;2.73;1.97;;;12.10;99.90;;;;;;5113861;28;20212;-67
2022/07/11 02:44:07;;;;;;;8.23;2.20;;;12.10;99.90;;;;;;5113103;28;20234;-68
2022/07/11 02:46:33;;;;;;;4.40;2.20;;;12.10;99.90;;;;;;5113303;28;20236;-69
2022/07/11 02:49:00;;;;;;;3.37;3.07;;;12.20;99.90;;;;;;5113718;28;20208;-68
2022/07/11 02:51:28;;;;;;;5.20;2.83;;;12.20;99.90;;;;;;5113650;28;20248;-69
2022/07/11 02:53:55;;;;;;;3.93;2.80;;;12.20;99.90;;;;;;5112924;28;20192;-68
2022/07/11 02:56:22;;;;;;;9.70;2.70;;;12.20;99.90;;;;;;5112859;28;20210;-68
2022/07/11 02:58:49;;;;;;;5.70;3.03;;;12.20;99.90;;;;;;5113683;28;20233;-68
2022/07/11 03:01:15;;;;;;;2.90;2.63;;;12.30;99.90;;;;;;5113090;28;20200;-69
2022/07/11 03:03:42;;;;;;;7.30;2.60;;;12.30;99.90;;;;;;5113106;28;20231;-67
2022/07/11 03:06:09;;;;;;;12.43;2.67;;;12.30;99.90;;;;;;5113264;28;20491;-68
2022/07/11 03:08:39;;;;;;;5.47;2.40;;;12.30;99.90;;;;;;5112422;28;20232;-68
2022/07/11 03:11:06;;;;;;;3.47;2.47;;;12.30;99.90;;;;;;5112777;28;20648;-68
2022/07/11 03:13:33;;;;;;;4.60;2.73;;;12.30;99.90;;;;;;5113202;28;20289;-67
2022/07/11 03:16:00;;;;;;;3.13;2.83;;;12.40;99.90;;;;;;5110944;28;20236;-68
2022/07/11 03:18:27;;;;;;;3.67;3.00;;;12.40;99.90;;;;;;5113135;28;20207;-68
2022/07/11 03:20:54;;;;;;;6.43;2.30;;;12.40;99.90;;;;;;5112350;28;20203;-68
2022/07/11 03:23:20;;;;;;;3.60;2.73;;;12.40;99.90;;;;;;5113124;28;20215;-67
2022/07/11 03:25:49;;;;;;;3.60;2.40;;;12.40;99.90;;;;;;5112502;28;20207;-68
2022/07/11 03:28:15;;;;;;;7.77;2.57;;;12.50;99.90;;;;;;5112058;28;20200;-68
2022/07/11 03:30:42;;;;;;;5.37;2.43;;;12.50;99.90;;;;;;5111665;28;20208;-68
2022/07/11 03:33:09;;;;;;;4.03;2.40;;;12.50;99.90;;;;;;5111980;28;20212;-68
2022/07/11 03:35:41;;;;;;;10.47;3.20;;;12.60;99.90;;;;;;5112369;28;20275;-68
2022/07/11 03:38:08;;;;;;;5.67;3.20;;;12.60;99.90;;;;;;5112574;28;20236;-68
2022/07/11 03:40:35;;;;;;;7.13;3.27;;;12.60;99.90;;;;;;5112816;28;20207;-68
2022/07/11 03:43:03;;;;;;;9.17;3.17;;;12.60;99.90;;;;;;5112353;28;20624;-68
2022/07/11 03:45:30;;;;;;;8.43;3.10;;;12.60;99.90;;;;;;5110308;28;20226;-68
2022/07/11 03:47:57;;;;;;;6.30;3.03;;;12.70;99.90;;;;;;5111918;28;20204;-69
2022/07/11 03:50:23;;;;;;;5.13;2.57;;;12.70;99.90;;;;;;5111388;28;20203;-68
2022/07/11 03:52:50;;;;;;;4.07;2.63;;;12.80;99.90;;;;;;5111961;28;20230;-69
2022/07/11 03:55:17;;;;;;;3.53;2.30;;;12.80;99.90;;;;;;5110872;28;20203;-69
2022/07/11 03:57:44;;;;;;;12.97;3.00;;;12.90;99.90;;;;;;5112338;28;20582;-68
2022/07/11 04:00:13;;;;;;;3.83;2.67;;;13.00;99.90;;;;;;5111772;28;20685;-68
2022/07/11 04:02:40;;;;;;;5.67;2.20;;;13.00;99.90;;;;;;5112416;28;20207;-68
2022/07/11 04:05:07;;;;;;;4.53;2.53;;;13.10;99.90;;;;;;5111245;28;20701;-69
2022/07/11 04:07:35;;;;;;;7.30;2.67;;;13.10;99.90;;;;;;5110715;28;20227;-68
2022/07/11 04:10:01;;;;;;;2.83;2.00;;;13.20;99.90;;;;;;5110619;28;20558;-68
2022/07/11 04:12:28;;;;;;;4.77;2.23;;;13.20;99.90;;;;;;5112137;28;20208;-69
2022/07/11 04:14:55;;;;;;;3.03;2.10;;;13.30;99.90;;;;;;5112039;28;20204;-69
2022/07/11 04:17:23;;;;;;;4.83;2.30;;;13.40;99.90;;;;;;5110686;28;20679;-69
2022/07/11 04:19:50;;;;;;;3.30;2.27;;;13.40;99.90;;;;;;5098201;28;20200;-69
2022/07/11 04:22:17;;;;;;;7.27;2.30;;;13.60;99.90;;;;;;5111817;28;20211;-69
2022/07/11 04:24:43;;;;;;;4.50;2.33;;;13.60;99.90;;;;;;5110257;28;20227;-68
2022/07/11 04:27:10;;;;;;;3.53;2.17;;;13.70;99.90;;;;;;5110021;28;20208;-69
2022/07/11 04:29:37;;;;;;;5.07;2.60;;;13.80;99.90;;;;;;5111002;28;20223;-68
2022/07/11 04:32:04;;;;;;;4.67;2.43;;;14.00;99.90;;;;;;5111094;28;20219;-68
2022/07/11 04:34:32;;;;;;;4.87;2.53;;;14.00;99.90;;;;;;5109475;28;20684;-68
2022/07/11 04:36:59;;;;;;;7.80;2.53;;;14.10;99.90;;;;;;5109838;28;20228;-68
2022/07/11 04:39:26;;;;;;;8.17;2.90;;;14.20;99.90;;;;;;5110756;28;20715;-69
2022/07/11 04:41:53;;;;;;;4.57;2.73;;;14.20;99.90;;;;;;5111498;28;20207;-68
2022/07/11 04:44:19;;;;;;;5.73;3.10;;;14.30;99.90;;;;;;5110833;28;20224;-69
2022/07/11 04:46:46;;;;;;;6.10;2.60;;;14.30;99.90;;;;;;5110886;28;20279;-69
2022/07/11 04:49:13;;;;;;;4.50;2.50;;;14.40;99.90;;;;;;5109218;28;20265;-68
2022/07/11 04:51:41;;;;;;;4.20;2.37;;;14.40;99.90;;;;;;5103332;28;20212;-68
2022/07/11 04:54:08;;;;;;;4.97;2.80;;;14.40;99.90;;;;;;5109562;28;20204;-68
2022/07/11 04:56:35;;;;;;;5.37;2.80;;;14.50;99.90;;;;;;5110940;28;20586;-68
2022/07/11 04:59:02;;;;;;;4.57;2.53;;;14.40;99.90;;;;;;5111299;28;20211;-68
2022/07/11 05:01:28;;;;;;;9.77;2.77;;;14.50;99.90;;;;;;5110484;28;20214;-70
2022/07/11 05:03:55;;;;;;;7.47;2.63;;;14.50;99.90;;;;;;5110238;28;20204;-68
2022/07/11 05:06:22;;;;;;;3.97;2.67;;;14.50;99.90;;;;;;5110403;28;20211;-68
2022/07/11 05:08:50;;;;;;;3.43;2.43;;;14.50;99.90;;;;;;5109829;28;20226;-68
2022/07/11 05:11:17;;;;;;;3.43;2.43;;;14.50;99.90;;;;;;5096412;28;20199;-68
2022/07/11 05:13:44;;;;;;;4.70;2.70;;;14.50;99.90;;;;;;5109795;28;20211;-68
2022/07/11 05:16:11;;;;;;;4.43;2.73;;;14.60;99.90;;;;;;5111065;28;20196;-68
2022/07/11 05:18:38;;;;;;;6.10;2.93;;;14.60;99.90;;;;;;5109363;28;20200;-68
2022/07/11 05:21:05;;;;;;;4.93;2.57;;;14.70;99.90;;;;;;5110529;28;20272;-69
2022/07/11 05:23:32;;;;;;;4.37;2.93;;;14.70;99.90;;;;;;5110715;28;20678;-68
2022/07/11 05:26:00;;;;;;;4.37;3.30;;;14.70;99.90;;;;;;5109327;28;20227;-68
2022/07/11 05:28:27;;;;;;;6.73;3.23;;;14.70;99.90;;;;;;5109959;28;20687;-68
2022/07/11 05:30:53;;;;;;;4.03;3.37;;;14.70;99.90;;;;;;5110719;28;20216;-69
2022/07/11 05:33:20;;;;;;;4.27;3.50;;;14.70;99.90;;;;;;5110706;28;20211;-68
2022/07/11 05:35:47;;;;;;;10.03;3.67;;;14.70;99.90;;;;;;5110442;28;20210;-68
2022/07/11 05:38:13;;;;;;;8.67;4.60;;;14.60;99.90;;;;;;5109243;28;20240;-68
2022/07/11 05:40:40;;;;;;;6.57;4.30;;;14.60;99.90;;;;;;5103740;28;20630;-68
2022/07/11 05:43:10;;;;;;;6.03;4.13;;;14.60;99.90;;;;;;5110640;28;20210;-68
2022/07/11 05:45:37;;;;;;;11.97;5.53;;;14.60;99.90;;;;;;5110231;28;20244;-68
2022/07/11 05:48:04;;;;;;;11.57;7.57;;;14.60;99.90;;;;;;5109901;28;20223;-68
2022/07/11 05:50:31;;;;;;;8.33;7.53;;;14.50;99.90;;;;;;5109386;28;20200;-69
2022/07/11 05:52:58;;;;;;;10.57;7.87;;;14.50;99.90;;;;;;5109932;28;20230;-69
2022/07/11 05:55:25;;;;;;;9.13;7.47;;;14.50;99.90;;;;;;5112040;28;20212;-68
2022/07/11 05:57:52;;;;;;;7.33;6.53;;;14.60;99.90;;;;;;5113445;28;20663;-68
2022/07/11 06:00:21;;;;;;;6.90;6.07;;;14.60;99.90;;;;;;5114503;28;20206;-69
2022/07/11 06:02:48;;;;;;;11.07;6.23;;;14.60;99.90;;;;;;5100268;28;20253;-69
2022/07/11 06:05:14;;;;;;;6.93;4.77;;;14.60;99.90;;;;;;5114706;28;20219;-68
2022/07/11 06:10:27;;;;;;;6.57;4.93;;;14.50;99.90;;;;;;5113805;28;20207;-69
2022/07/11 06:12:55;;;;;;;4.57;4.00;;;14.60;99.90;;;;;;5113802;28;20290;-69
2022/07/11 06:15:23;;;;;;;5.43;4.40;;;14.50;99.90;;;;;;5112941;28;20236;-70
2022/07/11 06:17:49;;;;;;;4.27;2.60;;;14.60;99.90;;;;;;5114640;28;20199;-69
2022/07/11 06:20:16;;;;;;;3.43;3.13;;;14.50;99.90;;;;;;5112267;28;20570;-69
2022/07/11 06:22:44;;;;;;;4.33;2.40;;;14.60;99.90;;;;;;5114249;28;20212;-69
2022/07/11 06:25:11;;;;;;;3.27;2.20;;;14.60;99.90;;;;;;5114721;28;20220;-68
2022/07/11 06:27:37;;;;;;;2.53;2.23;;;14.60;99.90;;;;;;5114400;28;20648;-69
2022/07/11 06:30:05;;;;;;;6.00;2.30;;;14.60;99.90;;;;;;5111671;28;20207;-69
2022/07/11 06:32:33;;;;;;;4.30;2.40;;;14.60;99.90;;;;;;5112365;28;20208;-69
2022/07/11 06:34:59;;;;;;;4.27;2.13;;;14.60;99.90;;;;;;5113791;28;20292;-69
2022/07/11 06:37:26;;;;;;;5.30;2.70;;;14.60;99.90;;;;;;5113959;28;20240;-69
2022/07/11 06:39:53;;;;;;;5.73;3.60;;;14.60;99.90;;;;;;5114195;28;20251;-69
2022/07/11 06:42:20;;;;;;;2.70;2.50;;;14.60;99.90;;;;;;5112724;28;20203;-69
2022/07/11 06:44:47;;;;;;;5.07;2.70;;;14.60;99.90;;;;;;5108494;28;20230;-69
2022/07/11 06:47:13;;;;;;;3.73;3.13;;;14.60;99.90;;;;;;5113372;28;20571;-70
2022/07/11 06:49:41;;;;;;;3.93;2.80;;;14.60;99.90;;;;;;5111589;28;20204;-69
2022/07/11 06:52:08;;;;;;;6.03;2.77;;;14.70;99.90;;;;;;5113200;28;20210;-69
2022/07/11 06:54:35;;;;;;;5.20;2.40;;;14.70;99.90;;;;;;5114615;28;20200;-69
2022/07/11 06:57:02;;;;;;;3.70;2.80;;;14.70;99.90;;;;;;5114977;28;20582;-69
2022/07/11 06:59:28;;;;;;;4.33;2.17;;;14.80;99.90;;;;;;5114568;28;20214;-68
2022/07/11 07:01:57;;;;;;;3.10;2.70;;;14.80;99.90;;;;;;5112602;28;20218;-69
2022/07/11 07:04:24;;;;;;;4.93;2.63;;;14.80;99.90;;;;;;5113683;28;20268;-69
2022/07/11 07:06:52;;;;;;;7.63;2.90;;;14.80;99.90;;;;;;5111824;28;20207;-69
2022/07/11 07:09:19;;;;;;;4.20;2.63;;;14.90;99.90;;;;;;5111669;28;20507;-69
2022/07/11 07:11:45;;;;;;;5.67;2.83;;;14.90;99.90;;;;;;5111671;28;20215;-69
2022/07/11 07:14:12;;;;;;;6.37;3.07;;;14.90;99.90;;;;;;5112931;28;20227;-70
2022/07/11 07:16:40;;;;;;;4.23;2.90;;;14.90;99.90;;;;;;5112208;28;20196;-70
2022/07/11 07:19:07;;;;;;;8.73;3.17;;;14.90;99.90;;;;;;5113873;28;20231;-70
2022/07/11 07:21:33;;;;;;;4.13;2.93;;;15.00;99.90;;;;;;5112047;28;20207;-69
2022/07/11 07:24:01;;;;;;;6.23;3.10;;;15.10;99.90;;;;;;5113082;28;20204;-69
2022/07/11 07:26:28;;;;;;;6.93;3.10;;;15.20;99.90;;;;;;5110599;28;20234;-69
2022/07/11 07:28:55;;;;;;;4.93;3.73;;;15.50;99.90;;;;;;5113402;28;20679;-69
2022/07/11 07:31:22;;;;;;;5.07;3.97;;;15.70;99.90;;;;;;5112240;28;20235;-69
2022/07/11 07:33:49;;;;;;;7.10;5.47;;;15.80;99.90;;;;;;5110922;28;20200;-71
2022/07/11 07:36:16;;;;;;;6.37;5.20;;;15.90;99.90;;;;;;5112854;28;20208;-70
2022/07/11 07:38:46;;;;;;;7.10;5.43;;;15.90;99.90;;;;;;5113199;28;20208;-69
2022/07/11 07:41:14;;;;;;;10.83;5.37;;;16.00;99.90;;;;;;5112975;28;20204;-70
2022/07/11 07:43:42;;;;;;;6.17;5.40;;;16.00;99.90;;;;;;5112922;28;20211;-69
2022/07/11 07:46:10;;;;;;;6.23;5.63;;;16.10;99.90;;;;;;5111776;28;20223;-69
2022/07/11 07:48:37;;;;;;;11.20;9.50;;;16.20;99.90;;;;;;5113567;28;20212;-69
2022/07/11 07:51:05;;;;;;;8.93;5.53;;;16.40;99.90;;;;;;5112726;28;20239;-68
2022/07/11 07:53:31;;;;;;;7.03;6.00;;;16.60;99.90;;;;;;5112506;28;20219;-69
2022/07/11 07:55:58;;;;;;;5.53;5.03;;;16.80;99.90;;;;;;5110363;28;20200;-70
2022/07/11 07:58:26;;;;;;;7.37;4.60;;;17.10;99.90;;;;;;5109450;28;20652;-70
2022/07/11 08:03:37;;;;;;;5.47;4.20;;;17.40;99.90;;;;;;5106210;28;20194;-69
2022/07/11 08:06:04;;;;;;;4.10;3.70;;;17.30;99.90;;;;;;5112936;28;20239;-70
2022/07/11 08:08:31;;;;;;;4.53;3.30;;;17.30;99.90;;;;;;5113811;28;20223;-70
2022/07/11 08:11:00;;;;;;;10.23;3.27;;;17.20;99.90;;;;;;5112600;28;20263;-70
2022/07/11 08:13:28;;;;;;;4.80;2.60;;;17.20;99.90;;;;;;5112824;28;20204;-70
2022/07/11 08:15:55;;;;;;;4.70;3.10;;;17.30;99.90;;;;;;5111639;28;20219;-70
2022/07/11 08:18:22;;;;;;;7.07;2.60;;;17.20;99.90;;;;;;5112291;28;20215;-70
2022/07/11 08:20:49;;;;;;;5.97;2.90;;;17.30;99.90;;;;;;5110979;28;20664;-70
2022/07/11 08:23:16;;;;;;;5.60;2.30;;;17.40;99.90;;;;;;5112104;28;20204;-70
2022/07/11 08:25:43;;;;;;;2.40;2.00;;;17.50;99.90;;;;;;5111813;28;20228;-70
2022/07/11 08:28:10;;;;;;;2.53;2.30;;;17.70;99.90;;;;;;5113807;28;20204;-70
2022/07/11 08:30:38;;;;;;;4.30;2.20;;;17.70;99.90;;;;;;5112286;28;20291;-69
2022/07/11 08:33:05;;;;;;;3.53;2.40;;;17.70;99.90;;;;;;5111825;28;20194;-72
2022/07/11 08:35:32;;;;;;;4.20;2.33;;;17.80;99.90;;;;;;5111852;28;20230;-70
2022/07/11 08:37:58;;;;;;;3.97;2.10;;;18.00;99.90;;;;;;5110389;28;20727;-70
2022/07/11 08:40:26;;;;;;;2.60;1.83;;;18.30;99.90;;;;;;5110963;28;20652;-70
2022/07/11 08:42:56;;;;;;;1.40;1.30;;;18.60;99.90;;;;;;5109535;28;20253;-70
2022/07/11 08:45:27;;;;;;;3.22;2.60;;;18.80;99.90;;;;;;5111883;28;20727;-69
2022/07/11 08:47:57;;;;;;;6.32;2.88;;;18.90;99.90;;;;;;5109514;28;20200;-70
2022/07/11 08:50:24;;;;;;;6.65;2.08;;;18.90;99.90;;;;;;5113933;28;20208;-70
2022/07/11 08:52:51;;;;;;;2.25;1.98;;;18.80;99.90;;;;;;5112103;28;20613;-72
2022/07/11 08:55:17;;;;;;;6.72;2.22;;;18.80;99.90;;;;;;5105510;28;20411;-68
2022/07/11 08:57:44;;;;;;;6.57;2.00;;;18.80;99.90;;;;;;5110365;28;20218;-69
2022/07/11 09:00:11;;;;;;;3.97;1.88;;;18.90;99.90;;;;;;5106855;28;20200;-71
2022/07/11 09:02:43;;;;;;;4.00;1.70;;;18.90;99.90;;;;;;5104879;28;20206;-69
2022/07/11 09:05:12;;;;;;;2.22;2.03;;;19.20;99.90;;;;;;5107825;28;20196;-70
2022/07/11 09:07:44;;;;;;;4.63;2.70;;;19.30;99.90;;;;;;5112145;28;20219;-69
2022/07/11 09:10:11;;;;;;;5.25;2.85;;;19.30;99.90;;;;;;5112108;28;20678;-70
2022/07/11 09:12:38;;;;;;;3.28;2.03;;;19.20;99.90;;;;;;5109914;28;20196;-69
2022/07/11 09:15:05;;;;;;;4.90;1.98;;;19.20;99.90;;;;;;5112394;28;20208;-70
2022/07/11 09:17:32;;;;;;;4.25;1.50;;;19.40;99.90;;;;;;5109964;28;20204;-70
2022/07/11 09:19:59;;;;;;;2.90;1.33;;;19.50;99.90;;;;;;5112536;28;20204;-70
2022/07/11 09:25:30;;;;;;;1.95;1.05;;;20.10;99.90;;;;;;5097636;28;20400;-70
2022/07/11 09:28:01;;;;;;;2.15;0.90;;;20.20;99.90;;;;;;5110294;28;20208;-70
2022/07/11 09:30:30;;;;;;;1.27;1.10;;;20.20;99.90;;;;;;5108642;28;20230;-69
2022/07/11 09:33:00;;;;;;;1.55;0.70;;;20.00;99.90;;;;;;5109324;28;20936;-72
2022/07/11 09:35:30;;;;;;;1.17;0.77;;;20.20;99.90;;;;;;5111028;28;20196;-72
2022/07/11 09:37:59;;;;;;;1.35;0.80;;;20.50;99.90;;;;;;5109165;28;20238;-69
2022/07/11 09:40:26;;;;;;;1.05;0.82;;;20.90;99.90;;;;;;5109900;28;20210;-70
2022/07/11 09:42:55;;;;;;;2.70;1.33;;;21.40;99.90;;;;;;5110626;28;20264;-69
2022/07/11 09:45:24;;;;;;;1.63;0.93;;;21.70;99.90;;;;;;5111663;28;20836;-68
2022/07/11 09:47:54;;;;;;;4.38;1.58;;;21.80;99.90;;;;;;5110999;28;20235;-68
2022/07/11 09:50:22;;;;;;;3.70;1.60;;;21.90;99.50;;;;;;5110651;28;20196;-69
2022/07/11 09:53:06;;;;;;;3.65;1.33;;;21.90;98.50;;;;;;5110055;28;20219;-70
2022/07/11 09:55:34;;;;;;;1.70;0.73;;;22.10;97.70;;;;;;5110931;28;20308;-69
2022/07/11 09:58:04;;;;;;;0.65;0.60;;;22.20;96.50;;;;;;5111123;28;20211;-69
2022/07/11 10:00:32;;;;;;;1.27;0.50;;;22.40;95.80;;;;;;5105645;28;20206;-69
2022/07/11 10:03:00;;;;;;;1.58;0.65;;;22.60;93.50;;;;;;5108834;28;20480;-73
2022/07/11 10:05:27;;;;;;;1.20;0.50;;;22.70;93.00;;;;;;5101903;28;20204;-68
2022/07/11 10:07:55;;;;;;;1.42;0.40;;;22.80;92.70;;;;;;5104145;28;20220;-69
2022/07/11 10:10:23;;;;;;;0.45;0.45;;;22.90;91.30;;;;;;5108570;28;20204;-69
2022/07/11 10:12:51;;;;;;;0.75;0.55;;;22.90;91.20;;;;;;5112372;28;20671;-69
2022/07/11 10:15:21;;;;;;;0.70;0.70;;;23.10;90.70;;;;;;5111199;28;20612;-69
2022/07/11 10:17:56;;;;;;;0.50;0.40;;;23.10;90.00;;;;;;5111392;28;20208;-69
2022/07/11 10:20:32;;;;;;;1.02;0.60;;;23.10;90.10;;;;;;5110111;28;20670;-68
2022/07/11 10:23:09;;;;;;;0.98;0.40;;;23.10;88.70;;;;;;5108578;28;20684;-69
2022/07/11 10:25:45;;;;;;;0.68;0.50;;;23.10;88.60;;;;;;5102950;28;20196;-69
2022/07/11 10:28:23;;;;;;;0.40;0.40;;;23.10;87.90;;;;;;5106850;28;20196;-69
2022/07/11 10:30:52;;;;;;;1.63;0.50;;;23.10;86.60;;;;;;5109794;28;20203;-69
2022/07/11 10:33:19;;;;;;;0.57;0.50;;;23.10;85.20;;;;;;5109800;28;20208;-70
2022/07/11 10:35:48;;;;;;;0.90;0.60;;;22.90;83.70;;;;;;5106480;28;20204;-71
2022/07/11 10:38:15;;;;;;;1.30;0.82;;;22.80;83.30;;;;;;5108461;28;20629;-68
2022/07/11 10:40:46;;;;;;;1.13;0.73;;;22.90;83.20;;;;;;5109305;28;20200;-68
2022/07/11 10:43:13;;;;;;;1.17;0.30;;;22.90;83.10;;;;;;5113932;28;20195;-70
2022/07/11 10:45:58;;;;;;;2.30;0.30;;;22.90;83.10;;;;;;5114235;28;20215;-69
2022/07/11 10:48:26;;;;;;;0.47;0.35;;;22.70;83.10;;;;;;5113360;28;20221;-69
2022/07/11 10:51:06;;;;;;;1.58;0.60;;;22.60;84.00;;;;;;5111072;28;20583;-68
2022/07/11 10:53:39;;;;;;;0.30;0.30;;;22.50;84.70;;;;;;5114512;28;20219;-69
2022/07/11 10:56:17;;;;;;;0.63;0.45;;;22.40;85.10;;;;;;5115045;28;20295;-69
2022/07/11 10:58:43;;;;;;;1.90;0.40;;;22.10;85.60;;;;;;5113006;28;20519;-69
2022/07/11 11:01:12;;;;;;;0.60;0.50;;;22.00;86.30;;;;;;5100039;28;20201;-70
2022/07/11 11:03:40;;;;;;;0.70;0.70;;;21.90;87.00;;;;;;5112875;27;20200;-70
2022/07/11 11:06:07;;;;;;;2.17;0.73;;;21.80;88.30;;;;;;5114582;28;20227;-70
2022/07/11 11:08:42;;;;;;;0.70;0.50;;;21.70;89.70;;;;;;5113281;27;20234;-71
2022/07/11 11:11:38;;;;;;;0.55;0.35;;;21.70;90.50;;;;;;5113714;28;20246;-70
2022/07/11 11:14:25;;;;;;;0.52;0.30;;;21.90;90.30;;;;;;5114993;28;20200;-69
2022/07/11 11:16:52;;;;;;;1.45;0.40;;;22.00;90.00;;;;;;5111625;28;20195;-70
2022/07/11 11:19:54;;;;;;;0.30;0.30;;;22.00;90.00;;;;;;5112633;28;20208;-69
2022/07/11 11:22:23;;;;;;;1.98;0.50;;;22.10;90.20;;;;;;5113826;28;20211;-69
2022/07/11 11:24:53;;;;;;;0.20;0.20;;;22.10;89.70;;;;;;5112284;28;20211;-70
2022/07/11 11:27:22;;;;;;;1.17;0.43;;;22.30;89.80;;;;;;5113850;28;20224;-69
2022/07/11 11:29:52;;;;;;;0.77;0.40;;;22.40;88.80;;;;;;5113167;27;20298;-69
2022/07/11 11:32:20;;;;;;;0.30;0.30;;;22.40;87.90;;;;;;5114067;28;20400;-69
2022/07/11 11:34:47;;;;;;;0.52;0.50;;;22.40;87.90;;;;;;5113484;28;20563;-69
2022/07/11 11:37:17;;;;;;;0.40;0.40;;;22.50;87.20;;;;;;5113656;28;20231;-68
2022/07/11 11:39:45;;;;;;;0.32;0.30;;;22.70;86.90;;;;;;5113179;28;20207;-69
2022/07/11 11:42:16;;;;;;;0.30;0.30;;;22.90;87.00;;;;;;5111864;28;20211;-70
2022/07/11 11:44:55;;;;;;;0.40;0.40;;;23.10;87.00;;;;;;5108540;27;20231;-69
2022/07/11 11:47:23;;;;;;;0.73;0.50;;;23.30;85.80;;;;;;5107296;28;20212;-68
2022/07/11 11:49:50;;;;;;;0.77;0.43;;;23.60;85.80;;;;;;5108065;28;21170;-69
2022/07/11 11:52:18;;;;;;;0.75;0.30;;;23.90;83.40;;;;;;5108502;27;20210;-69
2022/07/11 11:54:52;;;;;;;0.60;0.60;;;24.00;81.00;;;;;;5107543;28;20703;-70
2022/07/11 11:57:22;;;;;;;1.45;0.43;;;24.20;77.80;;;;;;5112901;28;20199;-69
2022/07/11 11:59:50;;;;;;;0.40;0.32;;;24.30;76.70;;;;;;5105629;28;20200;-68
2022/07/11 12:02:27;;;;;;;2.75;0.50;;;24.60;76.60;;;;;;5107025;27;20208;-69
2022/07/11 12:04:54;;;;;;;0.40;0.40;;;24.80;76.70;;;;;;5104882;27;20211;-69
2022/07/11 12:07:27;;;;;;;0.77;0.50;;;24.80;75.50;;;;;;5105365;28;20230;-70
2022/07/11 12:09:56;;;;;;;1.63;0.40;;;24.70;76.70;;;;;;5099696;28;20212;-71
2022/07/11 12:15:25;;;;;;;0.60;0.60;;;24.90;75.20;;;;;;5112841;28;20316;-69
2022/07/11 12:17:59;;;;;;;0.50;0.40;;;24.90;75.50;;;;;;5112726;28;20204;-69
2022/07/11 12:20:40;;;;;;;0.20;0.20;;;25.00;75.90;;;;;;5113602;28;20180;-70
2022/07/11 12:23:08;;;;;;;0.60;0.43;;;25.40;74.50;;;;;;5113594;28;20192;-69
2022/07/11 12:25:36;;;;;;;0.52;0.22;;;25.50;73.50;;;;;;5114104;28;20214;-69
2022/07/11 12:28:03;;;;;;;0.30;0.20;;;25.50;72.40;;;;;;5111946;28;20234;-69
2022/07/11 12:30:30;;;;;;;0.95;0.32;;;25.00;72.20;;;;;;5098094;28;20200;-70
2022/07/11 12:33:06;;;;;;;2.35;0.57;;;24.50;74.60;;;;;;5112784;28;20563;-71
2022/07/11 12:35:32;;;;;;;1.63;0.43;;;23.90;78.60;;;;;;5112027;27;20207;-69
2022/07/11 12:37:59;;;;;;;0.38;0.32;;;23.30;81.40;;;;;;5112466;28;20243;-69
2022/07/11 12:40:26;;;;;;;1.85;0.60;;;22.60;83.70;;;;;;5111746;28;20207;-69
2022/07/11 12:42:53;;;;;;;0.47;0.38;;;22.00;86.60;;;;;;5109812;27;20587;-69
2022/07/11 12:45:19;;;;;;;0.68;0.47;;;21.50;89.40;;;;;;5107480;27;20744;-68
2022/07/11 12:47:46;;;;;;;1.52;0.70;;;21.20;90.40;;;;;;5109706;28;20306;-68
2022/07/11 12:50:16;;;;;;;1.17;0.60;;;20.80;91.30;;;;;;5109476;28;20671;-70
2022/07/11 12:52:46;;;;;;;1.20;0.82;;;20.50;91.90;;;;;;5109435;28;20196;-71
2022/07/11 12:55:21;;;;;;;2.25;0.90;;;20.20;92.80;;;;;;5111073;28;20212;-68
2022/07/11 12:58:05;;;;;;;1.35;0.57;;;20.00;94.20;;;;;;5103966;28;20295;-70
2022/07/11 13:00:33;;;;;;;1.10;0.57;;;19.70;94.70;;;;;;5109065;28;20206;-69
2022/07/11 13:02:59;;;;;;;0.98;0.75;;;19.40;95.30;;;;;;5109902;28;20208;-69